site sitenws-alerts: Checking more than four warning/county codes can delay the loading of your pages. You should use a cron job to get the data.

Nearby METAR Weather Reports

 

KDMA - Davis/Tucson, Arizona, USA
Distance from station: W 21mi, 34km
Updated: 07/22/2019 6:24pm
Heavy thunderstorm, Rain, Overcast
Heavy thunderstorm, Rain, Overcast
 Wind from SW
Wind: SW 28 mph , 44 km/h, Gust: 66 mph , 106 km/h
Temperature: 77°F , 25°C
Dew Point: 63°F , 17°C
Humidity: 61%
Barometer: 30.00 inHg , 1015.9 hPa
Summary: Heavy thunderstorm, Rain
Clouds: Overcast
Visibility: 1 1/2 miles , 2.4 km
Cloud details: Few Clouds 200 ft
Few Clouds 1600 ft
Overcast 8500 ft
2019/07/23 01:24 KDMA 230124Z AUTO 22024G57KT 1 1/2SM +TSRA FEW002 FEW016 OVC085 25/17 A3000 RMK AO2 WSHFT 17 VIS 1 1/2V9 RAE02DZB02E07RAB07 SLP118 $
KTUS - Tucson, Arizona, USA
Distance from station: W 26mi, 42km
Updated: 07/22/2019 6:24pm
Light thunderstorm, Rain, Overcast
Light thunderstorm, Rain, Overcast
 Wind from SSW
Wind: SSW 9 mph , 15 km/h
Temperature: 82°F , 28°C
Heat Index: 82°F , 28°C
Dew Point: 59°F , 15°C
Humidity: 45%
Barometer: 30.03 inHg , 1016.9 hPa
Summary: Light thunderstorm, Rain
Clouds: Overcast
Visibility: 1 1/2 miles , 2.4 km
Cloud details: Overcast 11000 ft
2019/07/23 01:24 KTUS 230124Z 21008KT 1 1/2SM -TSRA OVC110 28/15 A3003 RMK AO2 LTG DSNT ALQDS RAB17 TSB0054 P0000 T02780150
 
KALK - Pioneer Airfield, Arizona, USA
Distance from station: S 37mi, 60km
Updated: 07/22/2019 5:56pm
Clear
Clear
 Wind from W
Wind: W 12 mph , 19 km/h
Temperature: 70°F , 21°C
Dew Point: 63°F , 17°C
Humidity: 78%
Barometer: 30.19 inHg , 1022.4 hPa
Clouds: Clear
Visibility: 10 miles , 16 km
2019/07/23 00:56 KALK 230056Z AUTO 26010KT 10SM CLR 21/17 A3019 RMK AO2 SLPNO T02110172
KRYN - Tucson/Ryan Fld, Arizona, USA
Distance from station: W 39mi, 62km
Updated: 07/22/2019 5:45pm
Mostly cloudy
Mostly cloudy
 Wind from SSW
Wind: SSW 29 mph , 46 km/h, Gust: 36 mph , 57 km/h
Temperature: 79°F , 26°C
Dew Point: 66°F , 19°C
Humidity: 65%
Barometer: 30.05 inHg , 1017.6 hPa
Clouds: Mostly cloudy
Visibility: 8 miles , 13 km
Cloud details: Few Clouds 500 ft
Partly cloudy 3300 ft
Mostly cloudy 4500 ft
2019/07/23 00:45 KRYN 230045Z 21025G31KT 8SM FEW005 SCT033 BKN045 26/19 A3005 RA BR RMK LTG DSNT ALQDS
 
KFHU - Fort Huachuca, Arizona, USA
Distance from station: SSE 39mi, 63km
Updated: 07/22/2019 5:58pm
Clear
Clear
 Wind from W
Wind: W 18 mph , 30 km/h
Temperature: 72°F , 22°C
Dew Point: 63°F , 17°C
Humidity: 73%
Barometer: 30.17 inHg , 1021.7 hPa
Clouds: Clear
Visibility: 10 miles , 16 km
2019/07/23 00:58 KFHU 230058Z 27016KT 10SM CLR 22/17 A3017 RMK AO2A PK WND 27028/02 LTG DSNT NE AND S SLP146 T02220174 $
KOLS - Nogales, Arizona, USA
Distance from station: SSW 54mi, 86km
Updated: 07/22/2019 5:54pm
Clear
Clear
 Wind from W
Wind: W 8 mph , 13 km/h
Temperature: 70°F , 21°C
Dew Point: 66°F , 19°C
Humidity: 88%
Barometer: 30.11 inHg , 1019.6 hPa
Clouds: Clear
Visibility: 10 miles , 16 km
2019/07/23 00:54 KOLS 230054Z AUTO 27007KT 10SM CLR 21/19 A3011 RMK AO2 LTG DSNT N RAE23 SLP135 P0000 T02110189 $
 
KDUG - Douglas Bisbee, Arizona, USA
Distance from station: SE 71mi, 114km
Updated: 07/22/2019 5:56pm
Partly cloudy
Partly cloudy
 Wind from SE
Wind: SE 8 mph , 13 km/h
Temperature: 91°F , 33°C
Dew Point: 52°F , 11°C
Humidity: 26%
Barometer: 30.07 inHg , 1018.3 hPa
Clouds: Partly cloudy
Visibility: 10 miles , 16 km
Cloud details: Partly cloudy 10000 ft
2019/07/23 00:56 KDUG 230056Z AUTO 14007KT 10SM SCT100 33/11 A3007 RMK AO2 SLP102 T03330111
KSAD - Safford, Arizona, USA
Distance from station: NE 71mi, 114km
Updated: 07/22/2019 5:51pm
Partly cloudy
Partly cloudy
 Wind from ENE
Wind: ENE 25 mph , 41 km/h, Gust: 38 mph , 61 km/h
Temperature: 93°F , 34°C
Dew Point: 48°F , 9°C
Humidity: 21%
Barometer: 30.02 inHg , 1016.6 hPa
Clouds: Partly cloudy
Visibility: 10 miles , 16 km
Cloud details: Partly cloudy 11000 ft
2019/07/23 00:51 KSAD 230051Z AUTO 06022G33KT 10SM SCT110 34/09 A3002 RMK AO2 PK WND 07036/0028 LTG DSNT SW-N SLP100 T03390089
 
KCGZ - Casa Granda, Arizona, USA
Distance from station: NW 93mi, 149km
Updated: 07/22/2019 5:56pm
Clear
Clear
 Wind from N
Wind: N 6 mph , 9 km/h
Temperature: 100°F , 38°C
Dew Point: 59°F , 15°C
Humidity: 25%
Barometer: 29.89 inHg , 1012.2 hPa
Clouds: Clear
Visibility: 10 miles , 16 km
2019/07/23 00:56 KCGZ 230056Z AUTO 01005KT 10SM CLR 38/15 A2989 RMK AO2 SLP103 T03830150
KLSB - Lordsburg, New Mexico, USA
Distance from station: E 106mi, 171km
Updated: 02/26/2018 1:22pm
NOT Current
Clear
Clear
 Wind from ESE
Wind: ESE 13 mph , 20 km/h, Gust: 18 mph , 30 km/h
Temperature: 63°F , 17°C
Dew Point: 10°F , -12°C
Humidity: 13%
Barometer: 30.04 inHg , 1017.3 hPa
Clouds: Clear
Visibility: 10 miles , 16 km
2018/02/26 20:22 KLSB 262022Z AUTO 11011G16KT 090V150 10SM CLR 17/M12 A3004
 
KPHX - Phoenix/Sky Hrbr, Arizona, USA
Distance from station: NW 126mi, 202km
Updated: 07/22/2019 5:51pm
Partly cloudy
Partly cloudy
 Wind from W
Wind: W 13 mph , 20 km/h, Gust: 20 mph , 31 km/h
Temperature: 102°F , 39°C
Dew Point: 59°F , 15°C
Humidity: 24%
Barometer: 29.83 inHg , 1010.2 hPa
Clouds: Partly cloudy
Visibility: 10 miles , 16 km
Cloud details: Few Clouds 7500 ft
Few Clouds 15000 ft
Partly cloudy 18000 ft
Partly cloudy 25000 ft
2019/07/23 00:51 KPHX 230051Z 27011G17KT 10SM FEW075 FEW150 SCT180 SCT250 39/15 A2983 RMK AO2 SLP078 T03940150
KGXF - Gila Bend (aaf), Arizona, USA
Distance from station: WNW 139mi, 223km
Updated: 07/22/2019 5:58pm
Clear
Clear
 Wind from W
Wind: W 13 mph , 20 km/h
Temperature: 106°F , 41°C
Dew Point: 57°F , 14°C
Humidity: 20%
Barometer: 29.81 inHg , 1009.5 hPa
Clouds: Clear
Visibility: 10 miles , 16 km
2019/07/23 00:58 KGXF 230058Z AUTO 28011KT 10SM CLR 41/14 A2981 RMK AO2 SLP079 T04070141 $
 
KSVC - Silver City, New Mexico, USA
Distance from station: ENE 142mi, 228km
Updated: 07/22/2019 6:15pm
Mostly cloudy
Mostly cloudy
 Wind from calm
Wind: Calm
Temperature: 72°F , 22°C
Dew Point: 59°F , 15°C
Humidity: 65%
Barometer: 30.27 inHg , 1025.1 hPa
Clouds: Mostly cloudy
Visibility: 10 miles , 16 km
Cloud details: Partly cloudy 6500 ft
Partly cloudy 7500 ft
Mostly cloudy 12000 ft
2019/07/23 01:15 KSVC 230115Z AUTO 00000KT 10SM SCT065 SCT075 BKN120 22/15 A3027 RMK AO2 T02200148
KLUF - Luke Afb/Glendal, Arizona, USA
Distance from station: NW 144mi, 232km
Updated: 07/22/2019 5:58pm
Clear
Clear
 Wind from W
Wind: W 10 mph , 17 km/h
Temperature: 106°F , 41°C
Dew Point: 55°F , 13°C
Humidity: 19%
Barometer: 29.81 inHg , 1009.5 hPa
Clouds: Clear
Visibility: 10 miles , 16 km
2019/07/23 00:58 KLUF 230058Z AUTO 28009KT 10SM CLR 41/13 A2981 RMK AO2 SLP077 T04060132